createdAt,value
2017-10-17T00:00:50.574Z,1017.00
2017-10-17T00:01:50.568Z,1017.04
2017-10-17T00:02:50.567Z,1017.01
2017-10-17T00:03:50.567Z,1017.04
2017-10-17T00:04:50.564Z,1017.01
2017-10-17T00:05:50.565Z,1017.02
2017-10-17T00:06:50.566Z,1017.00
2017-10-17T00:07:50.564Z,1017.01
2017-10-17T00:08:50.563Z,1017.01
2017-10-17T00:09:50.570Z,1017.04
2017-10-17T00:10:50.566Z,1017.09
2017-10-17T00:11:50.566Z,1017.08
2017-10-17T00:12:50.565Z,1017.03
2017-10-17T00:13:50.565Z,1017.06
2017-10-17T00:14:50.562Z,1017.03
2017-10-17T00:15:50.563Z,1017.07
2017-10-17T00:16:50.561Z,1017.02
2017-10-17T00:17:50.556Z,1016.98
2017-10-17T00:18:50.557Z,1016.96
2017-10-17T00:19:50.554Z,1017.01
2017-10-17T00:20:50.555Z,1017.01
2017-10-17T00:21:50.555Z,1017.02
2017-10-17T00:22:50.554Z,1016.94
2017-10-17T00:23:50.553Z,1017.03
2017-10-17T00:24:50.553Z,1016.96
2017-10-17T00:25:50.554Z,1016.97
2017-10-17T00:26:50.560Z,1016.99
2017-10-17T00:27:50.555Z,1016.96
2017-10-17T00:28:50.552Z,1017.06
2017-10-17T00:29:50.548Z,1017.00
2017-10-17T00:30:50.547Z,1017.05
2017-10-17T00:31:50.546Z,1017.02
2017-10-17T00:32:50.546Z,1016.97
2017-10-17T00:33:50.551Z,1017.00
2017-10-17T00:34:50.551Z,1017.00
2017-10-17T00:35:50.555Z,1017.04
2017-10-17T00:36:50.546Z,1016.99
2017-10-17T00:37:50.545Z,1017.01
2017-10-17T00:38:50.546Z,1017.03
2017-10-17T00:39:50.544Z,1016.99
2017-10-17T00:40:50.543Z,1016.97
2017-10-17T00:41:50.539Z,1016.98
2017-10-17T00:42:50.539Z,1016.97
2017-10-17T00:43:50.538Z,1017.00
2017-10-17T00:44:50.535Z,1017.00
2017-10-17T00:45:50.535Z,1016.98
2017-10-17T00:46:50.535Z,1017.04
2017-10-17T00:47:50.533Z,1017.03
2017-10-17T00:48:50.533Z,1017.07
2017-10-17T00:49:50.537Z,1017.06
2017-10-17T00:50:50.536Z,1017.01
2017-10-17T00:51:50.534Z,1017.01
2017-10-17T00:52:50.532Z,1016.99
2017-10-17T00:53:50.531Z,1017.01
2017-10-17T00:54:50.531Z,1017.03
2017-10-17T00:55:50.537Z,1017.03
2017-10-17T00:56:50.530Z,1017.00
2017-10-17T00:57:50.525Z,1017.00
2017-10-17T00:58:50.524Z,1017.02
2017-10-17T00:59:50.524Z,1017.03
2017-10-17T01:00:50.525Z,1017.00
2017-10-17T01:01:50.521Z,1017.03
2017-10-17T01:02:50.519Z,1016.93
2017-10-17T01:03:50.521Z,1016.98
2017-10-17T01:04:50.517Z,1017.06
2017-10-17T01:05:50.521Z,1017.08
2017-10-17T01:06:50.521Z,1017.07
2017-10-17T01:07:50.520Z,1017.13
2017-10-17T01:08:50.519Z,1017.13
2017-10-17T01:09:50.518Z,1017.10
2017-10-17T01:10:50.516Z,1017.14
2017-10-17T01:11:50.515Z,1017.13
2017-10-17T01:12:50.515Z,1017.13
2017-10-17T01:13:50.509Z,1017.13
2017-10-17T01:14:50.510Z,1017.14
2017-10-17T01:15:50.508Z,1017.13
2017-10-17T01:16:50.507Z,1017.11
2017-10-17T01:17:50.505Z,1017.11
2017-10-17T01:18:50.505Z,1017.09
2017-10-17T01:19:50.504Z,1017.11
2017-10-17T01:20:50.502Z,1017.10
2017-10-17T01:21:50.506Z,1017.13
2017-10-17T01:22:50.505Z,1017.08
2017-10-17T01:23:50.504Z,1017.09
2017-10-17T01:24:50.502Z,1017.13
2017-10-17T01:25:50.502Z,1017.08
2017-10-17T01:26:50.500Z,1017.14
2017-10-17T01:27:50.499Z,1017.06
2017-10-17T01:28:50.499Z,1017.09
2017-10-17T01:29:50.495Z,1017.07
2017-10-17T01:30:50.493Z,1017.14
2017-10-17T01:31:50.492Z,1017.04
2017-10-17T01:32:50.490Z,1017.03
2017-10-17T01:33:50.494Z,1017.02
2017-10-17T01:34:50.494Z,1017.09
2017-10-17T01:35:50.492Z,1017.08
2017-10-17T01:36:50.489Z,1017.06
2017-10-17T01:37:50.484Z,1017.07
2017-10-17T01:38:50.488Z,1017.06
2017-10-17T01:39:50.483Z,1017.09
2017-10-17T01:40:50.483Z,1017.07
2017-10-17T01:41:50.481Z,1017.04
2017-10-17T01:42:50.481Z,1017.04
2017-10-17T01:43:50.479Z,1017.07
2017-10-17T01:44:50.478Z,1017.11
2017-10-17T01:45:50.481Z,1017.09
2017-10-17T01:46:50.483Z,1017.07
2017-10-17T01:47:50.479Z,1017.07
2017-10-17T01:48:50.477Z,1017.08
2017-10-17T01:49:50.477Z,1017.04
2017-10-17T01:50:50.475Z,1017.06
2017-10-17T01:51:50.475Z,1017.07
2017-10-17T01:52:50.473Z,1017.04
2017-10-17T01:53:50.468Z,1017.00
2017-10-17T01:54:50.470Z,1017.03
2017-10-17T01:55:50.466Z,1017.03
2017-10-17T01:56:50.464Z,1017.13
2017-10-17T01:57:50.463Z,1017.06
2017-10-17T01:58:50.462Z,1017.08
2017-10-17T01:59:50.462Z,1017.05
2017-10-17T02:00:50.460Z,1017.09
2017-10-17T02:01:50.463Z,1017.11
2017-10-17T02:02:50.461Z,1017.16
2017-10-17T02:03:50.461Z,1017.16
2017-10-17T02:04:50.459Z,1017.14
2017-10-17T02:05:50.459Z,1017.16
2017-10-17T02:06:50.457Z,1017.17
2017-10-17T02:07:50.457Z,1017.18
2017-10-17T02:08:50.455Z,1017.18
2017-10-17T02:09:50.450Z,1017.25
2017-10-17T02:10:50.448Z,1017.25
2017-10-17T02:11:50.448Z,1017.22
2017-10-17T02:12:50.446Z,1017.28
2017-10-17T02:13:50.445Z,1017.27
2017-10-17T02:14:50.446Z,1017.26
2017-10-17T02:15:50.442Z,1017.26
2017-10-17T02:16:50.441Z,1017.24
2017-10-17T02:17:50.443Z,1017.25
2017-10-17T02:18:50.443Z,1017.24
2017-10-17T02:19:50.441Z,1017.23
2017-10-17T02:20:50.439Z,1017.22
2017-10-17T02:21:50.438Z,1017.20
2017-10-17T02:22:50.438Z,1017.18
2017-10-17T02:23:50.436Z,1017.20
2017-10-17T02:24:50.435Z,1017.17
2017-10-17T02:25:50.430Z,1017.19
2017-10-17T02:26:50.429Z,1017.14
2017-10-17T02:27:50.428Z,1017.19
2017-10-17T02:28:50.425Z,1017.15
2017-10-17T02:29:50.425Z,1017.18
2017-10-17T02:30:50.427Z,1017.21
2017-10-17T02:31:50.422Z,1017.21
2017-10-17T02:32:50.421Z,1017.21
2017-10-17T02:33:50.424Z,1017.20
2017-10-17T02:34:50.422Z,1017.24
2017-10-17T02:35:50.422Z,1017.26
2017-10-17T02:36:50.420Z,1017.26
2017-10-17T02:37:50.424Z,1017.29
2017-10-17T02:38:50.418Z,1017.33
2017-10-17T02:39:50.419Z,1017.28
2017-10-17T02:40:50.416Z,1017.25
2017-10-17T02:41:50.410Z,1017.17
2017-10-17T02:42:50.408Z,1017.18
2017-10-17T02:43:50.407Z,1017.20
2017-10-17T02:44:50.407Z,1017.24
2017-10-17T02:45:50.410Z,1017.30
2017-10-17T02:46:50.403Z,1017.31
2017-10-17T02:47:50.403Z,1017.31
2017-10-17T02:48:50.401Z,1017.33
2017-10-17T02:49:50.403Z,1017.31
2017-10-17T02:50:50.401Z,1017.35
2017-10-17T02:51:50.401Z,1017.37
2017-10-17T02:52:50.400Z,1017.40
2017-10-17T02:53:50.402Z,1017.37
2017-10-17T02:54:50.400Z,1017.36
2017-10-17T02:55:50.396Z,1017.37
2017-10-17T02:56:50.393Z,1017.37
2017-10-17T02:57:50.388Z,1017.35
2017-10-17T02:58:50.387Z,1017.40
2017-10-17T02:59:50.385Z,1017.35
2017-10-17T03:00:50.383Z,1017.39
2017-10-17T03:01:50.382Z,1017.39
2017-10-17T03:02:50.380Z,1017.37
2017-10-17T03:03:50.380Z,1017.38
2017-10-17T03:04:50.376Z,1017.33
2017-10-17T03:05:50.379Z,1017.31
2017-10-17T03:06:50.379Z,1017.35
2017-10-17T03:07:50.378Z,1017.33
2017-10-17T03:08:50.375Z,1017.31
2017-10-17T03:09:50.374Z,1017.39
2017-10-17T03:10:50.373Z,1017.32
2017-10-17T03:11:50.371Z,1017.33
2017-10-17T03:12:50.368Z,1017.26
2017-10-17T03:13:50.364Z,1017.33
2017-10-17T03:14:50.363Z,1017.27
2017-10-17T03:15:50.361Z,1017.30
2017-10-17T03:16:50.360Z,1017.31
2017-10-17T03:17:50.358Z,1017.33
2017-10-17T03:18:50.356Z,1017.32
2017-10-17T03:19:50.354Z,1017.31
2017-10-17T03:20:50.353Z,1017.33
2017-10-17T03:21:50.355Z,1017.36
2017-10-17T03:22:50.357Z,1017.34
2017-10-17T03:23:50.352Z,1017.31
2017-10-17T03:24:50.351Z,1017.31
2017-10-17T03:25:50.348Z,1017.40
2017-10-17T03:26:50.348Z,1017.40
2017-10-17T03:27:50.346Z,1017.33
2017-10-17T03:28:50.345Z,1017.27
2017-10-17T03:29:50.338Z,1017.31
2017-10-17T03:30:50.339Z,1017.39
2017-10-17T03:31:50.336Z,1017.41
2017-10-17T03:32:50.334Z,1017.47
2017-10-17T03:33:50.333Z,1017.40
2017-10-17T03:34:50.330Z,1017.44
2017-10-17T03:35:50.336Z,1017.45
2017-10-17T03:36:50.327Z,1017.46
2017-10-17T03:37:50.335Z,1017.50
2017-10-17T03:38:50.328Z,1017.49
2017-10-17T03:39:50.326Z,1017.56
2017-10-17T03:40:50.324Z,1017.52
2017-10-17T03:41:50.318Z,1017.52
2017-10-17T03:42:50.318Z,1017.52
2017-10-17T03:43:50.315Z,1017.52
2017-10-17T03:44:50.314Z,1017.51
2017-10-17T03:45:50.317Z,1017.60
2017-10-17T03:46:50.316Z,1017.54
2017-10-17T03:47:50.314Z,1017.59
2017-10-17T03:48:50.312Z,1017.56
2017-10-17T03:49:50.310Z,1017.58
2017-10-17T03:50:50.309Z,1017.56
2017-10-17T03:51:50.307Z,1017.51
2017-10-17T03:52:50.305Z,1017.54
2017-10-17T03:53:50.299Z,1017.56
2017-10-17T03:54:50.299Z,1017.56
2017-10-17T03:55:50.297Z,1017.55
2017-10-17T03:56:50.293Z,1017.58
2017-10-17T03:57:50.292Z,1017.53
2017-10-17T03:58:50.290Z,1017.53
2017-10-17T03:59:50.289Z,1017.52
2017-10-17T04:00:50.286Z,1017.52
2017-10-17T04:01:50.289Z,1017.58
2017-10-17T04:02:50.287Z,1017.53
2017-10-17T04:03:50.290Z,1017.57
2017-10-17T04:04:50.288Z,1017.60
2017-10-17T04:05:50.281Z,1017.62
2017-10-17T04:06:50.280Z,1017.57
2017-10-17T04:07:50.279Z,1017.56
2017-10-17T04:08:50.277Z,1017.54
2017-10-17T04:09:50.270Z,1017.63
2017-10-17T04:10:50.269Z,1017.60
2017-10-17T04:11:50.268Z,1017.64
2017-10-17T04:12:50.268Z,1017.67
2017-10-17T04:13:50.269Z,1017.61
2017-10-17T04:14:50.274Z,1017.65
2017-10-17T04:15:50.262Z,1017.63
2017-10-17T04:16:50.259Z,1017.65
2017-10-17T04:17:50.261Z,1017.67
2017-10-17T04:18:50.259Z,1017.68
2017-10-17T04:19:50.258Z,1017.64
2017-10-17T04:20:50.255Z,1017.62
2017-10-17T04:21:50.254Z,1017.68
2017-10-17T04:22:50.252Z,1017.66
2017-10-17T04:23:50.251Z,1017.61
2017-10-17T04:24:50.251Z,1017.64
2017-10-17T04:25:50.245Z,1017.66
2017-10-17T04:26:50.241Z,1017.62
2017-10-17T04:27:50.240Z,1017.66
2017-10-17T04:28:50.237Z,1017.64
2017-10-17T04:29:50.236Z,1017.58
2017-10-17T04:30:50.234Z,1017.64
2017-10-17T04:31:50.232Z,1017.63
2017-10-17T04:32:50.229Z,1017.62
2017-10-17T04:33:50.230Z,1017.63
2017-10-17T04:34:50.229Z,1017.63
2017-10-17T04:35:50.229Z,1017.70
2017-10-17T04:36:50.225Z,1017.70
2017-10-17T04:37:50.223Z,1017.71
2017-10-17T04:38:50.224Z,1017.69
2017-10-17T04:39:50.222Z,1017.69
2017-10-17T04:40:50.216Z,1017.73
2017-10-17T04:41:50.212Z,1017.76
2017-10-17T04:42:50.210Z,1017.74
2017-10-17T04:43:50.209Z,1017.79
2017-10-17T04:44:50.205Z,1017.84
2017-10-17T04:45:50.208Z,1017.83
2017-10-17T04:46:50.205Z,1017.87
2017-10-17T04:47:50.205Z,1017.88
2017-10-17T04:48:50.201Z,1017.84
2017-10-17T04:49:50.195Z,1017.87
2017-10-17T04:50:50.194Z,1017.89
2017-10-17T04:51:50.193Z,1017.87
2017-10-17T04:52:50.189Z,1017.84
2017-10-17T04:53:50.187Z,1017.87
2017-10-17T04:54:50.185Z,1017.89
2017-10-17T04:55:50.185Z,1017.88
2017-10-17T04:56:50.180Z,1017.90
2017-10-17T04:57:50.183Z,1017.89
2017-10-17T04:58:50.182Z,1017.91
2017-10-17T04:59:50.179Z,1017.90
2017-10-17T05:00:50.177Z,1017.91
2017-10-17T05:01:50.175Z,1017.88
2017-10-17T05:02:50.173Z,1017.92
2017-10-17T05:03:50.172Z,1017.92
2017-10-17T05:04:50.167Z,1018.02
2017-10-17T05:05:50.162Z,1017.94
2017-10-17T05:06:50.159Z,1017.98
2017-10-17T05:07:50.159Z,1018.01
2017-10-17T05:08:50.155Z,1017.95
2017-10-17T05:09:50.152Z,1017.97
2017-10-17T05:10:50.151Z,1017.98
2017-10-17T05:11:50.149Z,1017.96
2017-10-17T05:12:50.148Z,1018.01
2017-10-17T05:13:50.150Z,1017.98
2017-10-17T05:14:50.146Z,1018.03
2017-10-17T05:15:50.145Z,1018.02
2017-10-17T05:16:50.142Z,1017.97
2017-10-17T05:17:50.139Z,1017.95
2017-10-17T05:18:50.138Z,1017.98
2017-10-17T05:19:50.136Z,1017.94
2017-10-17T05:20:50.133Z,1018.00
2017-10-17T05:21:50.125Z,1017.96
2017-10-17T05:22:50.125Z,1018.00
2017-10-17T05:23:50.124Z,1017.99
2017-10-17T05:24:50.122Z,1018.02
2017-10-17T05:25:50.117Z,1018.02
2017-10-17T05:26:50.116Z,1018.07
2017-10-17T05:27:50.112Z,1018.06
2017-10-17T05:28:50.110Z,1018.06
2017-10-17T05:29:50.112Z,1018.03
2017-10-17T05:30:50.109Z,1018.06
2017-10-17T05:31:50.108Z,1018.00
2017-10-17T05:32:50.105Z,1018.00
2017-10-17T05:33:50.104Z,1017.99
2017-10-17T05:34:50.100Z,1017.95
2017-10-17T05:35:50.099Z,1018.00
2017-10-17T05:36:50.096Z,1017.99
2017-10-17T05:37:50.089Z,1018.05
2017-10-17T05:38:50.088Z,1018.04
2017-10-17T05:39:50.084Z,1018.06
2017-10-17T05:40:50.082Z,1018.05
2017-10-17T05:41:50.079Z,1018.03
2017-10-17T05:42:50.078Z,1018.04
2017-10-17T05:43:50.076Z,1018.01
2017-10-17T05:44:50.071Z,1018.04
2017-10-17T05:45:50.081Z,1018.04
2017-10-17T05:46:50.072Z,1018.00
2017-10-17T05:47:50.073Z,1018.04
2017-10-17T05:48:50.067Z,1018.01
2017-10-17T05:49:50.061Z,1018.03
2017-10-17T05:50:50.058Z,1018.01
2017-10-17T05:51:50.056Z,1018.05
2017-10-17T05:52:50.053Z,1018.06
2017-10-17T05:53:50.053Z,1018.09
2017-10-17T05:54:50.053Z,1018.02
2017-10-17T05:55:50.051Z,1018.00
2017-10-17T05:56:50.046Z,1018.06
2017-10-17T05:57:50.044Z,1017.99
2017-10-17T05:58:50.041Z,1018.05
2017-10-17T05:59:50.040Z,1018.09
2017-10-17T06:00:50.036Z,1018.04
2017-10-17T06:01:50.030Z,1018.11
2017-10-17T06:02:50.027Z,1018.14
2017-10-17T06:03:50.025Z,1018.13
2017-10-17T06:04:50.024Z,1018.18
2017-10-17T06:05:50.021Z,1018.15
2017-10-17T06:06:50.018Z,1018.14
2017-10-17T06:07:50.017Z,1018.19
2017-10-17T06:08:50.013Z,1018.17
2017-10-17T06:09:50.016Z,1018.19
2017-10-17T06:10:50.012Z,1018.19
2017-10-17T06:11:50.011Z,1018.20
2017-10-17T06:12:50.006Z,1018.18
2017-10-17T06:13:50.006Z,1018.21
2017-10-17T06:14:50.003Z,1018.21
2017-10-17T06:15:50.000Z,1018.21
2017-10-17T06:16:50.004Z,1018.23
2017-10-17T06:17:49.991Z,1018.18
2017-10-17T06:18:49.988Z,1018.18
2017-10-17T06:19:49.987Z,1018.22
2017-10-17T06:20:49.982Z,1018.23
2017-10-17T06:21:49.981Z,1018.27
2017-10-17T06:22:49.978Z,1018.28
2017-10-17T06:23:49.987Z,1018.25
2017-10-17T06:24:49.979Z,1018.31
2017-10-17T06:25:49.976Z,1018.34
2017-10-17T06:26:49.973Z,1018.36
2017-10-17T06:27:49.972Z,1018.38
2017-10-17T06:28:49.969Z,1018.39
2017-10-17T06:29:49.966Z,1018.42
2017-10-17T06:30:49.964Z,1018.42
2017-10-17T06:31:49.962Z,1018.40
2017-10-17T06:32:49.960Z,1018.39
2017-10-17T06:33:49.953Z,1018.35
2017-10-17T06:34:49.951Z,1018.34
2017-10-17T06:35:49.950Z,1018.37
2017-10-17T06:36:49.969Z,1018.34
2017-10-17T06:37:49.945Z,1018.37
2017-10-17T06:38:49.942Z,1018.34
2017-10-17T06:39:49.941Z,1018.38
2017-10-17T06:40:49.939Z,1018.32
2017-10-17T06:41:49.941Z,1018.37
2017-10-17T06:42:49.938Z,1018.36
2017-10-17T06:43:49.937Z,1018.39
2017-10-17T06:44:49.935Z,1018.40
2017-10-17T06:45:49.933Z,1018.40
2017-10-17T06:46:49.931Z,1018.41
2017-10-17T06:47:49.934Z,1018.37
2017-10-17T06:48:49.927Z,1018.31
2017-10-17T06:49:49.921Z,1018.35
2017-10-17T06:50:49.921Z,1018.39
2017-10-17T06:51:49.919Z,1018.38
2017-10-17T06:52:49.917Z,1018.32
2017-10-17T06:53:49.914Z,1018.39
2017-10-17T06:54:49.920Z,1018.40
2017-10-17T06:55:49.914Z,1018.34
2017-10-17T06:56:49.909Z,1018.34
2017-10-17T06:57:49.911Z,1018.32
2017-10-17T06:58:49.910Z,1018.30
2017-10-17T06:59:49.909Z,1018.37
2017-10-17T07:00:49.906Z,1018.37
2017-10-17T07:01:49.905Z,1018.35
2017-10-17T07:02:49.903Z,1018.38
2017-10-17T07:03:49.902Z,1018.40
2017-10-17T07:04:49.898Z,1018.41
2017-10-17T07:05:49.893Z,1018.48
2017-10-17T07:06:49.892Z,1018.45
2017-10-17T07:07:49.890Z,1018.47
2017-10-17T07:08:49.888Z,1018.46
2017-10-17T07:09:49.887Z,1018.52
2017-10-17T07:10:49.889Z,1018.52
2017-10-17T07:11:49.883Z,1018.49
2017-10-17T07:12:49.880Z,1018.47
2017-10-17T07:13:49.884Z,1018.53
2017-10-17T07:14:49.881Z,1018.48
2017-10-17T07:15:49.881Z,1018.49
2017-10-17T07:16:49.878Z,1018.53
2017-10-17T07:17:49.876Z,1018.52
2017-10-17T07:18:49.877Z,1018.57
2017-10-17T07:19:49.874Z,1018.51
2017-10-17T07:20:49.876Z,1018.54
2017-10-17T07:21:49.866Z,1018.54
2017-10-17T07:22:49.865Z,1018.53
2017-10-17T07:23:49.863Z,1018.51
2017-10-17T07:24:49.862Z,1018.58
2017-10-17T07:25:49.860Z,1018.58
2017-10-17T07:26:49.858Z,1018.59
2017-10-17T07:27:49.857Z,1018.59
2017-10-17T07:28:49.855Z,1018.57
2017-10-17T07:29:49.857Z,1018.57
2017-10-17T07:30:49.860Z,1018.63
2017-10-17T07:31:49.855Z,1018.61
2017-10-17T07:32:49.851Z,1018.59
2017-10-17T07:33:49.850Z,1018.62
2017-10-17T07:34:49.851Z,1018.59
2017-10-17T07:35:49.849Z,1018.63
2017-10-17T07:36:49.848Z,1018.59
2017-10-17T07:37:49.846Z,1018.66
2017-10-17T07:38:49.841Z,1018.59
2017-10-17T07:39:49.839Z,1018.67
2017-10-17T07:40:49.837Z,1018.61
2017-10-17T07:41:49.838Z,1018.64
2017-10-17T07:42:49.835Z,1018.62
2017-10-17T07:43:49.835Z,1018.60
2017-10-17T07:44:49.832Z,1018.57
2017-10-17T07:45:49.837Z,1018.59
2017-10-17T07:46:49.836Z,1018.60
2017-10-17T07:47:49.835Z,1018.60
2017-10-17T07:48:49.834Z,1018.61
2017-10-17T07:49:49.833Z,1018.59
2017-10-17T07:50:49.830Z,1018.59
2017-10-17T07:51:49.830Z,1018.54
2017-10-17T07:52:49.829Z,1018.57
2017-10-17T07:53:49.823Z,1018.55
2017-10-17T07:54:49.824Z,1018.54
2017-10-17T07:55:49.822Z,1018.54
2017-10-17T07:56:49.821Z,1018.49
2017-10-17T07:57:49.824Z,1018.50
2017-10-17T07:58:49.822Z,1018.53
2017-10-17T07:59:49.822Z,1018.52
2017-10-17T08:00:49.822Z,1018.52
2017-10-17T08:01:49.816Z,1018.52
2017-10-17T08:02:49.816Z,1018.47
2017-10-17T08:03:49.816Z,1018.45
2017-10-17T08:04:49.815Z,1018.47
2017-10-17T08:05:49.814Z,1018.43
2017-10-17T08:06:49.814Z,1018.43
2017-10-17T08:07:49.814Z,1018.46
2017-10-17T08:08:49.812Z,1018.48
2017-10-17T08:09:49.816Z,1018.52
2017-10-17T08:10:49.817Z,1018.47
2017-10-17T08:11:49.816Z,1018.52
2017-10-17T08:12:49.815Z,1018.49
2017-10-17T08:13:49.814Z,1018.48
2017-10-17T08:14:49.816Z,1018.52
2017-10-17T08:15:49.815Z,1018.55
2017-10-17T08:16:49.814Z,1018.52
2017-10-17T08:17:49.810Z,1018.51
2017-10-17T08:18:49.810Z,1018.50
2017-10-17T08:19:49.811Z,1018.56
2017-10-17T08:20:49.809Z,1018.51
2017-10-17T08:21:49.810Z,1018.52
2017-10-17T08:22:49.812Z,1018.50
2017-10-17T08:23:49.813Z,1018.53
2017-10-17T08:24:49.812Z,1018.49
2017-10-17T08:25:49.817Z,1018.47
2017-10-17T08:26:49.817Z,1018.48
2017-10-17T08:27:49.820Z,1018.50
2017-10-17T08:28:49.820Z,1018.51
2017-10-17T08:29:49.819Z,1018.49
2017-10-17T08:30:49.825Z,1018.48
2017-10-17T08:31:49.822Z,1018.52
2017-10-17T08:32:49.823Z,1018.47
2017-10-17T08:33:49.821Z,1018.49
2017-10-17T08:34:49.821Z,1018.47
2017-10-17T08:35:49.822Z,1018.45
2017-10-17T08:36:49.822Z,1018.46
2017-10-17T08:37:49.824Z,1018.50
2017-10-17T08:38:49.824Z,1018.51
2017-10-17T08:39:49.826Z,1018.51
2017-10-17T08:40:49.827Z,1018.54
2017-10-17T08:41:49.832Z,1018.48
2017-10-17T08:42:49.834Z,1018.52
2017-10-17T08:43:49.836Z,1018.52
2017-10-17T08:44:49.836Z,1018.49
2017-10-17T08:45:49.837Z,1018.47
2017-10-17T08:46:49.845Z,1018.47
2017-10-17T08:47:49.842Z,1018.44
2017-10-17T08:48:49.842Z,1018.45
2017-10-17T08:49:49.840Z,1018.45
2017-10-17T08:50:49.842Z,1018.45
2017-10-17T08:51:49.854Z,1018.46
2017-10-17T08:52:49.845Z,1018.46
2017-10-17T08:53:49.849Z,1018.44
2017-10-17T08:54:49.849Z,1018.43
2017-10-17T08:55:49.852Z,1018.49
2017-10-17T08:56:49.853Z,1018.49
2017-10-17T08:57:49.860Z,1018.46
2017-10-17T08:58:49.863Z,1018.44
2017-10-17T08:59:49.865Z,1018.41
2017-10-17T09:00:49.867Z,1018.45
2017-10-17T09:01:49.865Z,1018.43
2017-10-17T09:02:49.869Z,1018.45
2017-10-17T09:03:49.871Z,1018.47
2017-10-17T09:04:49.873Z,1018.40
2017-10-17T09:05:49.881Z,1018.42
2017-10-17T09:06:49.886Z,1018.42
2017-10-17T09:07:49.887Z,1018.44
2017-10-17T09:08:49.912Z,1018.46
2017-10-17T09:09:49.892Z,1018.44
2017-10-17T09:10:49.896Z,1018.50
2017-10-17T09:11:49.902Z,1018.50
2017-10-17T09:12:49.901Z,1018.47
2017-10-17T09:13:49.901Z,1018.53
2017-10-17T09:14:49.905Z,1018.53
2017-10-17T09:15:49.907Z,1018.58
2017-10-17T09:16:49.909Z,1018.51
2017-10-17T09:17:49.914Z,1018.56
2017-10-17T09:18:49.917Z,1018.59
2017-10-17T09:19:49.921Z,1018.62
2017-10-17T09:20:49.923Z,1018.63
2017-10-17T09:21:49.931Z,1018.61
2017-10-17T09:22:49.937Z,1018.59
2017-10-17T09:23:49.939Z,1018.61
2017-10-17T09:24:49.943Z,1018.63
2017-10-17T09:25:49.948Z,1018.63
2017-10-17T09:26:49.952Z,1018.63
2017-10-17T09:27:49.957Z,1018.65
2017-10-17T09:28:49.958Z,1018.65
2017-10-17T09:29:49.957Z,1018.64
2017-10-17T09:30:49.964Z,1018.63
2017-10-17T09:31:49.966Z,1018.65
2017-10-17T09:32:49.974Z,1018.67
2017-10-17T09:33:49.975Z,1018.61
2017-10-17T09:34:49.978Z,1018.62
2017-10-17T09:35:49.984Z,1018.61
2017-10-17T09:36:49.987Z,1018.59
2017-10-17T09:37:49.996Z,1018.61
2017-10-17T09:38:50.000Z,1018.58
2017-10-17T09:39:50.004Z,1018.56
2017-10-17T09:40:50.009Z,1018.53
2017-10-17T09:41:50.013Z,1018.49
2017-10-17T09:42:50.018Z,1018.51
2017-10-17T09:43:50.022Z,1018.49
2017-10-17T09:44:50.027Z,1018.52
2017-10-17T09:45:50.028Z,1018.50
2017-10-17T09:46:50.033Z,1018.55
2017-10-17T09:47:50.037Z,1018.47
2017-10-17T09:48:50.046Z,1018.52
2017-10-17T09:49:50.046Z,1018.52
2017-10-17T09:50:50.050Z,1018.52
2017-10-17T09:51:50.055Z,1018.51
2017-10-17T09:52:50.060Z,1018.49
2017-10-17T09:53:50.067Z,1018.54
2017-10-17T09:54:50.073Z,1018.53
2017-10-17T09:55:50.078Z,1018.47
2017-10-17T09:56:50.082Z,1018.46
2017-10-17T09:57:50.087Z,1018.45
2017-10-17T09:58:50.095Z,1018.45
2017-10-17T09:59:50.097Z,1018.46
2017-10-17T10:00:50.102Z,1018.46
2017-10-17T10:01:50.104Z,1018.44
2017-10-17T10:02:50.108Z,1018.45
2017-10-17T10:03:50.114Z,1018.45
2017-10-17T10:04:50.117Z,1018.45
2017-10-17T10:05:50.127Z,1018.46
2017-10-17T10:06:50.133Z,1018.45
2017-10-17T10:07:50.138Z,1018.45
2017-10-17T10:08:50.142Z,1018.42
2017-10-17T10:09:50.143Z,1018.46
2017-10-17T10:10:50.155Z,1018.43
2017-10-17T10:11:50.155Z,1018.41
2017-10-17T10:12:50.159Z,1018.42
2017-10-17T10:13:50.164Z,1018.42
2017-10-17T10:14:50.170Z,1018.41
2017-10-17T10:15:50.176Z,1018.41
2017-10-17T10:16:50.181Z,1018.40
2017-10-17T10:17:50.191Z,1018.36
2017-10-17T10:18:50.194Z,1018.37
2017-10-17T10:19:50.204Z,1018.38
2017-10-17T10:20:50.206Z,1018.40
2017-10-17T10:21:50.211Z,1018.42
2017-10-17T10:22:50.217Z,1018.38
2017-10-17T10:23:50.223Z,1018.37
2017-10-17T10:24:50.229Z,1018.34
2017-10-17T10:25:50.228Z,1018.33
2017-10-17T10:26:50.236Z,1018.37
2017-10-17T10:27:50.240Z,1018.37
2017-10-17T10:28:50.244Z,1018.41
2017-10-17T10:29:50.251Z,1018.38
2017-10-17T10:30:50.255Z,1018.33
2017-10-17T10:31:50.261Z,1018.36
2017-10-17T10:32:50.266Z,1018.33
2017-10-17T10:33:50.275Z,1018.30
2017-10-17T10:34:50.280Z,1018.28
2017-10-17T10:35:50.287Z,1018.28
2017-10-17T10:36:50.291Z,1018.30
2017-10-17T10:37:50.296Z,1018.22
2017-10-17T10:38:50.305Z,1018.24
2017-10-17T10:39:50.306Z,1018.23
2017-10-17T10:40:50.310Z,1018.27
2017-10-17T10:41:50.325Z,1018.23
2017-10-17T10:42:50.321Z,1018.27
2017-10-17T10:43:50.322Z,1018.24
2017-10-17T10:44:50.330Z,1018.21
2017-10-17T10:45:50.333Z,1018.22
2017-10-17T10:46:50.336Z,1018.21
2017-10-17T10:47:50.341Z,1018.26
2017-10-17T10:48:50.346Z,1018.22
2017-10-17T10:49:50.356Z,1018.22
2017-10-17T10:50:50.367Z,1018.22
2017-10-17T10:51:50.365Z,1018.19
2017-10-17T10:52:50.371Z,1018.15
2017-10-17T10:53:50.383Z,1018.19
2017-10-17T10:54:50.404Z,1018.17
2017-10-17T10:55:50.387Z,1018.20
2017-10-17T10:56:50.390Z,1018.15
2017-10-17T10:57:50.391Z,1018.15
2017-10-17T10:58:50.396Z,1018.17
2017-10-17T10:59:50.402Z,1018.13
2017-10-17T11:00:50.407Z,1018.13
2017-10-17T11:01:50.411Z,1018.11
2017-10-17T11:02:50.417Z,1018.13
2017-10-17T11:03:50.422Z,1018.10
2017-10-17T11:04:50.426Z,1018.11
2017-10-17T11:05:50.435Z,1018.08
2017-10-17T11:06:50.440Z,1018.06
2017-10-17T11:07:50.445Z,1018.01
2017-10-17T11:08:50.461Z,1018.03
2017-10-17T11:09:50.453Z,1018.05
2017-10-17T11:10:50.461Z,1018.00
2017-10-17T11:11:50.464Z,1018.00
2017-10-17T11:12:50.466Z,1018.02
2017-10-17T11:13:50.468Z,1017.96
2017-10-17T11:14:50.476Z,1017.99
2017-10-17T11:15:50.480Z,1017.97
2017-10-17T11:16:50.482Z,1017.98
2017-10-17T11:17:50.484Z,1018.00
2017-10-17T11:18:50.489Z,1018.03
2017-10-17T11:19:50.497Z,1018.02
2017-10-17T11:20:50.498Z,1017.97
2017-10-17T11:21:50.505Z,1017.92
2017-10-17T11:22:50.511Z,1017.92
2017-10-17T11:23:50.516Z,1017.87
2017-10-17T11:24:50.525Z,1017.89
2017-10-17T11:25:50.523Z,1017.87
2017-10-17T11:26:50.527Z,1017.87
2017-10-17T11:27:50.531Z,1017.84
2017-10-17T11:28:50.535Z,1017.85
2017-10-17T11:29:50.533Z,1017.84
2017-10-17T11:30:50.539Z,1017.83
2017-10-17T11:31:50.545Z,1017.80
2017-10-17T11:32:50.548Z,1017.79
2017-10-17T11:33:50.550Z,1017.78
2017-10-17T11:34:50.554Z,1017.82
2017-10-17T11:35:50.557Z,1017.84
2017-10-17T11:36:50.563Z,1017.83
2017-10-17T11:37:50.568Z,1017.79
2017-10-17T11:38:50.572Z,1017.79
2017-10-17T11:39:50.576Z,1017.78
2017-10-17T11:40:50.580Z,1017.76
2017-10-17T11:41:50.583Z,1017.71
2017-10-17T11:42:50.586Z,1017.74
2017-10-17T11:43:50.591Z,1017.69
2017-10-17T11:44:50.593Z,1017.68
2017-10-17T11:45:50.594Z,1017.65
2017-10-17T11:46:50.598Z,1017.62
2017-10-17T11:47:50.601Z,1017.60
2017-10-17T11:48:50.605Z,1017.60
2017-10-17T11:49:50.608Z,1017.55
2017-10-17T11:50:50.612Z,1017.55
2017-10-17T11:51:50.616Z,1017.56
2017-10-17T11:52:50.618Z,1017.44
2017-10-17T11:53:50.626Z,1017.49
2017-10-17T11:54:50.632Z,1017.48
2017-10-17T11:55:50.633Z,1017.49
2017-10-17T11:56:50.636Z,1017.49
2017-10-17T11:57:50.646Z,1017.48
2017-10-17T11:58:50.645Z,1017.48
2017-10-17T11:59:50.648Z,1017.49
2017-10-17T12:00:50.651Z,1017.49
2017-10-17T12:01:50.651Z,1017.50
2017-10-17T12:02:50.654Z,1017.46
2017-10-17T12:03:50.658Z,1017.45
2017-10-17T12:04:50.662Z,1017.41
2017-10-17T12:05:50.664Z,1017.42